sensor_id;sensor_type;location;lat;lon;timestamp;temperature;humidity
73360;DHT22;63092;43.582;19.528;2023-07-16T00:01:36;24.60;97.70
73360;DHT22;63092;43.582;19.528;2023-07-16T00:04:01;24.60;97.60
73360;DHT22;63092;43.582;19.528;2023-07-16T00:06:27;24.60;97.70
73360;DHT22;63092;43.582;19.528;2023-07-16T00:08:53;24.50;97.80
73360;DHT22;63092;43.582;19.528;2023-07-16T00:11:19;24.50;98.00
73360;DHT22;63092;43.582;19.528;2023-07-16T00:13:45;24.40;98.00
73360;DHT22;63092;43.582;19.528;2023-07-16T00:16:14;24.40;98.10
73360;DHT22;63092;43.582;19.528;2023-07-16T00:18:44;24.50;98.10
73360;DHT22;63092;43.582;19.528;2023-07-16T00:21:10;24.50;98.00
73360;DHT22;63092;43.582;19.528;2023-07-16T00:23:36;24.50;98.00
73360;DHT22;63092;43.582;19.528;2023-07-16T00:26:02;24.50;98.00
73360;DHT22;63092;43.582;19.528;2023-07-16T00:28:29;24.50;97.90
73360;DHT22;63092;43.582;19.528;2023-07-16T00:30:55;24.50;97.80
73360;DHT22;63092;43.582;19.528;2023-07-16T00:33:20;24.50;97.80
73360;DHT22;63092;43.582;19.528;2023-07-16T00:35:50;24.50;97.80
73360;DHT22;63092;43.582;19.528;2023-07-16T00:38:19;24.40;97.80
73360;DHT22;63092;43.582;19.528;2023-07-16T00:40:48;24.40;98.10
73360;DHT22;63092;43.582;19.528;2023-07-16T00:43:13;24.30;98.00
73360;DHT22;63092;43.582;19.528;2023-07-16T00:45:40;24.30;98.20
73360;DHT22;63092;43.582;19.528;2023-07-16T00:48:07;24.30;98.20
73360;DHT22;63092;43.582;19.528;2023-07-16T00:50:34;24.20;98.30
73360;DHT22;63092;43.582;19.528;2023-07-16T00:53:08;24.30;98.10
73360;DHT22;63092;43.582;19.528;2023-07-16T00:55:35;24.30;98.10
73360;DHT22;63092;43.582;19.528;2023-07-16T00:58:03;24.30;98.10
73360;DHT22;63092;43.582;19.528;2023-07-16T01:00:33;24.30;98.20
73360;DHT22;63092;43.582;19.528;2023-07-16T01:03:01;24.30;97.90
73360;DHT22;63092;43.582;19.528;2023-07-16T01:05:34;24.30;97.80
73360;DHT22;63092;43.582;19.528;2023-07-16T01:08:04;24.20;97.80
73360;DHT22;63092;43.582;19.528;2023-07-16T01:10:33;24.20;97.80
73360;DHT22;63092;43.582;19.528;2023-07-16T01:12:59;24.20;97.90
73360;DHT22;63092;43.582;19.528;2023-07-16T01:15:25;24.20;98.00
73360;DHT22;63092;43.582;19.528;2023-07-16T01:17:51;24.20;98.00
73360;DHT22;63092;43.582;19.528;2023-07-16T01:20:16;24.10;98.10
73360;DHT22;63092;43.582;19.528;2023-07-16T01:23:02;24.10;98.20
73360;DHT22;63092;43.582;19.528;2023-07-16T01:28:21;23.90;98.30
73360;DHT22;63092;43.582;19.528;2023-07-16T01:30:50;23.70;98.40
73360;DHT22;63092;43.582;19.528;2023-07-16T01:33:18;23.70;98.60
73360;DHT22;63092;43.582;19.528;2023-07-16T01:35:47;23.70;98.80
73360;DHT22;63092;43.582;19.528;2023-07-16T01:38:14;23.70;98.80
73360;DHT22;63092;43.582;19.528;2023-07-16T01:40:41;23.70;98.80
73360;DHT22;63092;43.582;19.528;2023-07-16T01:43:07;23.70;98.90
73360;DHT22;63092;43.582;19.528;2023-07-16T01:45:33;23.70;98.90
73360;DHT22;63092;43.582;19.528;2023-07-16T01:50:37;23.70;98.90
73360;DHT22;63092;43.582;19.528;2023-07-16T01:53:02;23.70;98.90
73360;DHT22;63092;43.582;19.528;2023-07-16T01:55:28;23.60;98.90
73360;DHT22;63092;43.582;19.528;2023-07-16T01:57:54;23.60;98.80
73360;DHT22;63092;43.582;19.528;2023-07-16T02:00:19;23.60;98.90
73360;DHT22;63092;43.582;19.528;2023-07-16T02:02:46;23.60;98.90
73360;DHT22;63092;43.582;19.528;2023-07-16T02:05:11;23.60;98.80
73360;DHT22;63092;43.582;19.528;2023-07-16T02:07:37;23.50;98.90
73360;DHT22;63092;43.582;19.528;2023-07-16T02:10:03;23.50;98.80
73360;DHT22;63092;43.582;19.528;2023-07-16T02:12:29;23.40;98.90
73360;DHT22;63092;43.582;19.528;2023-07-16T02:14:54;23.40;99.10
73360;DHT22;63092;43.582;19.528;2023-07-16T02:17:20;23.40;99.10
73360;DHT22;63092;43.582;19.528;2023-07-16T02:19:46;23.40;99.20
73360;DHT22;63092;43.582;19.528;2023-07-16T02:22:11;23.50;99.20
73360;DHT22;63092;43.582;19.528;2023-07-16T02:24:37;23.50;99.10
73360;DHT22;63092;43.582;19.528;2023-07-16T02:27:03;23.50;99.00
73360;DHT22;63092;43.582;19.528;2023-07-16T02:29:29;23.60;99.10
73360;DHT22;63092;43.582;19.528;2023-07-16T02:31:55;23.60;99.00
73360;DHT22;63092;43.582;19.528;2023-07-16T02:34:20;23.60;98.90
73360;DHT22;63092;43.582;19.528;2023-07-16T02:36:46;23.60;98.90
73360;DHT22;63092;43.582;19.528;2023-07-16T02:39:12;23.60;99.00
73360;DHT22;63092;43.582;19.528;2023-07-16T02:41:38;23.60;99.10
73360;DHT22;63092;43.582;19.528;2023-07-16T02:44:05;23.50;99.00
73360;DHT22;63092;43.582;19.528;2023-07-16T02:46:31;23.50;99.10
73360;DHT22;63092;43.582;19.528;2023-07-16T02:48:57;23.50;99.00
73360;DHT22;63092;43.582;19.528;2023-07-16T02:51:23;23.50;99.10
73360;DHT22;63092;43.582;19.528;2023-07-16T02:53:48;23.40;99.10
73360;DHT22;63092;43.582;19.528;2023-07-16T02:56:14;23.30;99.30
73360;DHT22;63092;43.582;19.528;2023-07-16T02:58:40;23.30;99.50
73360;DHT22;63092;43.582;19.528;2023-07-16T03:01:05;23.30;99.80
73360;DHT22;63092;43.582;19.528;2023-07-16T03:03:31;23.20;99.80
73360;DHT22;63092;43.582;19.528;2023-07-16T03:05:57;23.20;99.60
73360;DHT22;63092;43.582;19.528;2023-07-16T03:08:22;23.30;99.60
73360;DHT22;63092;43.582;19.528;2023-07-16T03:10:51;23.30;99.80
73360;DHT22;63092;43.582;19.528;2023-07-16T03:13:17;23.30;99.60
73360;DHT22;63092;43.582;19.528;2023-07-16T03:15:43;23.30;99.70
73360;DHT22;63092;43.582;19.528;2023-07-16T03:18:09;23.40;99.70
73360;DHT22;63092;43.582;19.528;2023-07-16T03:20:34;23.50;99.80
73360;DHT22;63092;43.582;19.528;2023-07-16T03:23:00;23.40;99.70
73360;DHT22;63092;43.582;19.528;2023-07-16T03:25:26;23.40;99.80
73360;DHT22;63092;43.582;19.528;2023-07-16T03:27:52;23.50;99.80
73360;DHT22;63092;43.582;19.528;2023-07-16T03:30:17;23.50;99.50
73360;DHT22;63092;43.582;19.528;2023-07-16T03:32:43;23.50;99.20
73360;DHT22;63092;43.582;19.528;2023-07-16T03:35:09;23.50;99.40
73360;DHT22;63092;43.582;19.528;2023-07-16T03:37:34;23.50;99.60
73360;DHT22;63092;43.582;19.528;2023-07-16T03:40:17;23.40;99.70
73360;DHT22;63092;43.582;19.528;2023-07-16T03:42:43;23.40;99.90
73360;DHT22;63092;43.582;19.528;2023-07-16T03:45:12;23.30;99.90
73360;DHT22;63092;43.582;19.528;2023-07-16T03:47:39;23.40;99.90
73360;DHT22;63092;43.582;19.528;2023-07-16T03:50:05;23.40;99.90
73360;DHT22;63092;43.582;19.528;2023-07-16T03:52:31;23.40;99.90
73360;DHT22;63092;43.582;19.528;2023-07-16T03:54:57;23.50;99.90
73360;DHT22;63092;43.582;19.528;2023-07-16T03:57:23;23.50;99.90
73360;DHT22;63092;43.582;19.528;2023-07-16T03:59:48;23.50;99.90
73360;DHT22;63092;43.582;19.528;2023-07-16T04:02:14;23.50;99.80
73360;DHT22;63092;43.582;19.528;2023-07-16T04:04:40;23.50;99.90
73360;DHT22;63092;43.582;19.528;2023-07-16T04:07:05;23.50;99.80
73360;DHT22;63092;43.582;19.528;2023-07-16T04:09:31;23.50;99.90
73360;DHT22;63092;43.582;19.528;2023-07-16T04:11:57;23.40;99.90
73360;DHT22;63092;43.582;19.528;2023-07-16T04:14:22;23.50;99.90
73360;DHT22;63092;43.582;19.528;2023-07-16T04:16:48;23.50;99.90
73360;DHT22;63092;43.582;19.528;2023-07-16T04:19:14;23.50;99.90
73360;DHT22;63092;43.582;19.528;2023-07-16T04:21:40;23.50;99.90
73360;DHT22;63092;43.582;19.528;2023-07-16T04:24:06;23.50;99.90
73360;DHT22;63092;43.582;19.528;2023-07-16T04:26:32;23.60;99.90
73360;DHT22;63092;43.582;19.528;2023-07-16T04:28:58;23.60;99.90
73360;DHT22;63092;43.582;19.528;2023-07-16T04:31:24;23.60;99.80
73360;DHT22;63092;43.582;19.528;2023-07-16T04:33:50;23.70;99.70
73360;DHT22;63092;43.582;19.528;2023-07-16T04:36:16;23.70;99.60
73360;DHT22;63092;43.582;19.528;2023-07-16T04:38:42;23.60;99.70
73360;DHT22;63092;43.582;19.528;2023-07-16T04:41:07;23.60;99.80
73360;DHT22;63092;43.582;19.528;2023-07-16T04:43:33;23.60;99.70
73360;DHT22;63092;43.582;19.528;2023-07-16T04:45:59;23.60;99.90
73360;DHT22;63092;43.582;19.528;2023-07-16T04:48:25;23.60;99.90
73360;DHT22;63092;43.582;19.528;2023-07-16T04:50:51;23.60;99.90
73360;DHT22;63092;43.582;19.528;2023-07-16T04:53:21;23.60;99.90
73360;DHT22;63092;43.582;19.528;2023-07-16T04:55:47;23.60;99.80
73360;DHT22;63092;43.582;19.528;2023-07-16T04:58:13;23.70;99.80
73360;DHT22;63092;43.582;19.528;2023-07-16T05:00:39;23.70;99.70
73360;DHT22;63092;43.582;19.528;2023-07-16T05:03:05;23.80;99.60
73360;DHT22;63092;43.582;19.528;2023-07-16T05:05:31;23.80;99.60
73360;DHT22;63092;43.582;19.528;2023-07-16T05:07:57;23.80;99.60
73360;DHT22;63092;43.582;19.528;2023-07-16T05:10:23;23.90;99.50
73360;DHT22;63092;43.582;19.528;2023-07-16T05:12:49;23.90;99.50
73360;DHT22;63092;43.582;19.528;2023-07-16T05:15:15;23.90;99.40
73360;DHT22;63092;43.582;19.528;2023-07-16T05:17:41;23.90;99.30
73360;DHT22;63092;43.582;19.528;2023-07-16T05:20:07;23.90;99.30
73360;DHT22;63092;43.582;19.528;2023-07-16T05:22:33;24.00;99.30
73360;DHT22;63092;43.582;19.528;2023-07-16T05:24:59;24.00;99.20
73360;DHT22;63092;43.582;19.528;2023-07-16T05:27:25;24.10;99.20
73360;DHT22;63092;43.582;19.528;2023-07-16T05:29:50;24.10;99.10
73360;DHT22;63092;43.582;19.528;2023-07-16T05:32:16;24.10;99.30
73360;DHT22;63092;43.582;19.528;2023-07-16T05:34:42;24.10;99.10
73360;DHT22;63092;43.582;19.528;2023-07-16T05:37:07;24.10;99.00
73360;DHT22;63092;43.582;19.528;2023-07-16T05:39:33;24.20;99.00
73360;DHT22;63092;43.582;19.528;2023-07-16T05:41:59;24.20;99.10
73360;DHT22;63092;43.582;19.528;2023-07-16T05:44:27;24.20;98.90
73360;DHT22;63092;43.582;19.528;2023-07-16T05:46:53;24.30;98.80
73360;DHT22;63092;43.582;19.528;2023-07-16T05:49:19;24.40;98.70
73360;DHT22;63092;43.582;19.528;2023-07-16T05:51:45;24.30;98.80
73360;DHT22;63092;43.582;19.528;2023-07-16T05:54:10;24.30;98.80
73360;DHT22;63092;43.582;19.528;2023-07-16T05:56:36;24.30;98.90
73360;DHT22;63092;43.582;19.528;2023-07-16T05:59:02;24.40;98.70
73360;DHT22;63092;43.582;19.528;2023-07-16T06:01:28;24.30;98.50
73360;DHT22;63092;43.582;19.528;2023-07-16T06:06:20;24.70;98.20
73360;DHT22;63092;43.582;19.528;2023-07-16T06:08:45;24.90;98.20
73360;DHT22;63092;43.582;19.528;2023-07-16T06:11:12;25.10;97.80
73360;DHT22;63092;43.582;19.528;2023-07-16T06:13:38;25.00;97.70
73360;DHT22;63092;43.582;19.528;2023-07-16T06:16:04;25.20;97.60
73360;DHT22;63092;43.582;19.528;2023-07-16T06:18:30;25.30;97.60
73360;DHT22;63092;43.582;19.528;2023-07-16T06:20:55;25.40;97.40
73360;DHT22;63092;43.582;19.528;2023-07-16T06:23:21;25.40;97.30
73360;DHT22;63092;43.582;19.528;2023-07-16T06:25:47;25.40;97.10
73360;DHT22;63092;43.582;19.528;2023-07-16T06:28:14;25.60;97.30
73360;DHT22;63092;43.582;19.528;2023-07-16T06:30:40;25.70;97.40
73360;DHT22;63092;43.582;19.528;2023-07-16T06:33:06;25.80;97.00
73360;DHT22;63092;43.582;19.528;2023-07-16T06:35:32;25.90;96.80
73360;DHT22;63092;43.582;19.528;2023-07-16T06:37:58;25.90;96.80
73360;DHT22;63092;43.582;19.528;2023-07-16T06:42:54;26.30;96.40
73360;DHT22;63092;43.582;19.528;2023-07-16T06:45:20;26.40;96.20
73360;DHT22;63092;43.582;19.528;2023-07-16T06:47:46;26.40;95.90
73360;DHT22;63092;43.582;19.528;2023-07-16T06:50:11;26.40;95.60
73360;DHT22;63092;43.582;19.528;2023-07-16T06:52:37;26.50;95.60
73360;DHT22;63092;43.582;19.528;2023-07-16T07:02:22;26.80;94.70
73360;DHT22;63092;43.582;19.528;2023-07-16T07:05:01;26.90;95.20
73360;DHT22;63092;43.582;19.528;2023-07-16T07:07:28;27.00;95.20
73360;DHT22;63092;43.582;19.528;2023-07-16T07:09:54;27.10;95.30
73360;DHT22;63092;43.582;19.528;2023-07-16T07:12:20;27.10;95.10
73360;DHT22;63092;43.582;19.528;2023-07-16T07:14:47;27.20;95.00
73360;DHT22;63092;43.582;19.528;2023-07-16T07:17:13;27.20;94.70
73360;DHT22;63092;43.582;19.528;2023-07-16T07:19:39;27.40;95.00
73360;DHT22;63092;43.582;19.528;2023-07-16T07:24:31;27.60;94.40
73360;DHT22;63092;43.582;19.528;2023-07-16T07:26:56;27.60;94.20
73360;DHT22;63092;43.582;19.528;2023-07-16T07:29:22;27.60;94.40
73360;DHT22;63092;43.582;19.528;2023-07-16T07:31:48;27.40;94.20
73360;DHT22;63092;43.582;19.528;2023-07-16T07:34:13;27.40;94.40
73360;DHT22;63092;43.582;19.528;2023-07-16T07:36:39;27.50;94.20
73360;DHT22;63092;43.582;19.528;2023-07-16T07:39:05;27.60;94.50
73360;DHT22;63092;43.582;19.528;2023-07-16T07:41:31;27.80;94.20
73360;DHT22;63092;43.582;19.528;2023-07-16T07:43:57;27.90;94.40
73360;DHT22;63092;43.582;19.528;2023-07-16T07:48:49;28.10;93.00
73360;DHT22;63092;43.582;19.528;2023-07-16T07:53:40;28.20;93.10
73360;DHT22;63092;43.582;19.528;2023-07-16T07:56:06;28.20;93.10
73360;DHT22;63092;43.582;19.528;2023-07-16T07:58:32;28.20;93.20
73360;DHT22;63092;43.582;19.528;2023-07-16T08:01:07;28.30;93.40
73360;DHT22;63092;43.582;19.528;2023-07-16T08:03:33;28.40;93.00
73360;DHT22;63092;43.582;19.528;2023-07-16T08:05:59;28.40;93.40
73360;DHT22;63092;43.582;19.528;2023-07-16T08:08:24;28.50;92.90
73360;DHT22;63092;43.582;19.528;2023-07-16T08:10:50;28.40;92.80
73360;DHT22;63092;43.582;19.528;2023-07-16T08:15:42;28.60;92.70
73360;DHT22;63092;43.582;19.528;2023-07-16T08:18:08;28.60;93.40
73360;DHT22;63092;43.582;19.528;2023-07-16T08:20:36;28.70;92.90
73360;DHT22;63092;43.582;19.528;2023-07-16T08:23:02;28.80;92.40
73360;DHT22;63092;43.582;19.528;2023-07-16T08:25:27;28.80;92.60
73360;DHT22;63092;43.582;19.528;2023-07-16T08:27:53;28.80;92.70
73360;DHT22;63092;43.582;19.528;2023-07-16T08:30:19;29.00;92.50
73360;DHT22;63092;43.582;19.528;2023-07-16T08:32:45;29.10;92.80
73360;DHT22;63092;43.582;19.528;2023-07-16T08:35:11;29.20;92.40
73360;DHT22;63092;43.582;19.528;2023-07-16T08:40:12;29.30;92.10
73360;DHT22;63092;43.582;19.528;2023-07-16T08:42:44;29.40;91.90
73360;DHT22;63092;43.582;19.528;2023-07-16T08:45:10;29.30;91.90
73360;DHT22;63092;43.582;19.528;2023-07-16T08:47:36;29.50;92.20
73360;DHT22;63092;43.582;19.528;2023-07-16T08:52:29;29.60;91.60
73360;DHT22;63092;43.582;19.528;2023-07-16T08:54:55;29.70;91.80
73360;DHT22;63092;43.582;19.528;2023-07-16T08:57:21;29.90;92.20
73360;DHT22;63092;43.582;19.528;2023-07-16T08:59:49;29.90;91.10
73360;DHT22;63092;43.582;19.528;2023-07-16T09:04:47;30.10;91.50
73360;DHT22;63092;43.582;19.528;2023-07-16T09:07:13;30.20;91.40
73360;DHT22;63092;43.582;19.528;2023-07-16T09:09:39;30.30;91.20
73360;DHT22;63092;43.582;19.528;2023-07-16T09:12:05;30.30;90.90
73360;DHT22;63092;43.582;19.528;2023-07-16T09:16:57;30.40;90.00
73360;DHT22;63092;43.582;19.528;2023-07-16T09:19:25;30.40;90.70
73360;DHT22;63092;43.582;19.528;2023-07-16T09:21:52;30.60;91.00
73360;DHT22;63092;43.582;19.528;2023-07-16T09:24:18;30.70;90.50
73360;DHT22;63092;43.582;19.528;2023-07-16T09:26:49;30.70;90.60
73360;DHT22;63092;43.582;19.528;2023-07-16T09:29:15;30.80;90.30
73360;DHT22;63092;43.582;19.528;2023-07-16T09:34:33;31.10;89.70
73360;DHT22;63092;43.582;19.528;2023-07-16T09:37:01;31.20;90.40
73360;DHT22;63092;43.582;19.528;2023-07-16T09:41:54;31.40;88.10
73360;DHT22;63092;43.582;19.528;2023-07-16T09:44:22;31.50;88.00
73360;DHT22;63092;43.582;19.528;2023-07-16T09:49:15;31.70;85.60
73360;DHT22;63092;43.582;19.528;2023-07-16T09:51:43;31.70;86.00
73360;DHT22;63092;43.582;19.528;2023-07-16T09:54:08;31.70;85.30
73360;DHT22;63092;43.582;19.528;2023-07-16T09:56:47;31.70;85.30
73360;DHT22;63092;43.582;19.528;2023-07-16T09:59:16;31.80;86.60
73360;DHT22;63092;43.582;19.528;2023-07-16T10:01:43;32.00;86.80
73360;DHT22;63092;43.582;19.528;2023-07-16T10:04:17;32.10;86.50
73360;DHT22;63092;43.582;19.528;2023-07-16T10:06:55;32.10;86.50
73360;DHT22;63092;43.582;19.528;2023-07-16T10:09:39;32.20;85.10
73360;DHT22;63092;43.582;19.528;2023-07-16T10:12:21;32.20;84.80
73360;DHT22;63092;43.582;19.528;2023-07-16T10:14:49;32.30;85.60
73360;DHT22;63092;43.582;19.528;2023-07-16T10:17:22;32.40;86.60
73360;DHT22;63092;43.582;19.528;2023-07-16T10:20:01;32.40;84.70
73360;DHT22;63092;43.582;19.528;2023-07-16T10:22:34;32.50;83.20
73360;DHT22;63092;43.582;19.528;2023-07-16T10:25:01;32.60;82.30
73360;DHT22;63092;43.582;19.528;2023-07-16T10:27:33;32.60;84.80
73360;DHT22;63092;43.582;19.528;2023-07-16T10:30:01;32.70;81.00
73360;DHT22;63092;43.582;19.528;2023-07-16T10:32:29;32.70;80.60
73360;DHT22;63092;43.582;19.528;2023-07-16T10:34:56;32.80;81.10
73360;DHT22;63092;43.582;19.528;2023-07-16T10:37:22;32.90;76.60
73360;DHT22;63092;43.582;19.528;2023-07-16T10:39:49;32.90;78.70
73360;DHT22;63092;43.582;19.528;2023-07-16T10:42:19;33.00;78.40
73360;DHT22;63092;43.582;19.528;2023-07-16T10:44:49;33.10;78.60
73360;DHT22;63092;43.582;19.528;2023-07-16T10:47:22;33.10;79.90
73360;DHT22;63092;43.582;19.528;2023-07-16T10:52:14;33.30;78.50
73360;DHT22;63092;43.582;19.528;2023-07-16T10:54:41;33.50;78.90
73360;DHT22;63092;43.582;19.528;2023-07-16T10:59:32;33.60;76.10
73360;DHT22;63092;43.582;19.528;2023-07-16T11:01:58;33.60;74.00
73360;DHT22;63092;43.582;19.528;2023-07-16T11:04:24;33.60;75.00
73360;DHT22;63092;43.582;19.528;2023-07-16T11:06:50;33.60;72.70
73360;DHT22;63092;43.582;19.528;2023-07-16T11:09:17;33.70;72.40
73360;DHT22;63092;43.582;19.528;2023-07-16T11:11:43;33.70;72.80
73360;DHT22;63092;43.582;19.528;2023-07-16T11:16:36;33.90;71.80
73360;DHT22;63092;43.582;19.528;2023-07-16T11:19:05;33.90;77.10
73360;DHT22;63092;43.582;19.528;2023-07-16T11:21:33;33.90;77.70
73360;DHT22;63092;43.582;19.528;2023-07-16T11:24:28;33.90;76.00
73360;DHT22;63092;43.582;19.528;2023-07-16T11:27:01;33.90;74.60
73360;DHT22;63092;43.582;19.528;2023-07-16T11:32:00;34.10;73.90
73360;DHT22;63092;43.582;19.528;2023-07-16T11:34:25;34.10;75.70
73360;DHT22;63092;43.582;19.528;2023-07-16T11:36:51;34.10;74.90
73360;DHT22;63092;43.582;19.528;2023-07-16T11:39:17;34.20;73.40
73360;DHT22;63092;43.582;19.528;2023-07-16T11:41:55;34.30;72.60
73360;DHT22;63092;43.582;19.528;2023-07-16T11:44:20;34.30;74.10
73360;DHT22;63092;43.582;19.528;2023-07-16T11:46:46;34.40;70.50
73360;DHT22;63092;43.582;19.528;2023-07-16T11:49:12;34.50;71.40
73360;DHT22;63092;43.582;19.528;2023-07-16T11:51:38;34.50;74.80
73360;DHT22;63092;43.582;19.528;2023-07-16T11:54:04;34.70;75.60
73360;DHT22;63092;43.582;19.528;2023-07-16T11:56:29;34.50;71.20
73360;DHT22;63092;43.582;19.528;2023-07-16T11:58:55;34.60;71.50
73360;DHT22;63092;43.582;19.528;2023-07-16T12:01:21;34.70;73.70
73360;DHT22;63092;43.582;19.528;2023-07-16T12:03:46;34.80;71.70
73360;DHT22;63092;43.582;19.528;2023-07-16T12:06:12;34.80;69.20
73360;DHT22;63092;43.582;19.528;2023-07-16T12:08:38;34.90;65.50
73360;DHT22;63092;43.582;19.528;2023-07-16T12:11:04;34.90;65.30
73360;DHT22;63092;43.582;19.528;2023-07-16T12:13:29;35.00;64.60
73360;DHT22;63092;43.582;19.528;2023-07-16T12:15:55;35.00;63.30
73360;DHT22;63092;43.582;19.528;2023-07-16T12:18:21;35.00;61.00
73360;DHT22;63092;43.582;19.528;2023-07-16T12:20:47;35.20;59.70
73360;DHT22;63092;43.582;19.528;2023-07-16T12:23:12;35.30;58.80
73360;DHT22;63092;43.582;19.528;2023-07-16T12:25:38;35.40;60.10
73360;DHT22;63092;43.582;19.528;2023-07-16T12:28:04;35.40;60.70
73360;DHT22;63092;43.582;19.528;2023-07-16T12:30:30;35.40;58.80
73360;DHT22;63092;43.582;19.528;2023-07-16T12:32:55;35.50;57.50
73360;DHT22;63092;43.582;19.528;2023-07-16T12:35:21;35.50;55.80
73360;DHT22;63092;43.582;19.528;2023-07-16T12:37:47;35.60;58.40
73360;DHT22;63092;43.582;19.528;2023-07-16T12:40:13;35.60;59.00
73360;DHT22;63092;43.582;19.528;2023-07-16T12:42:39;35.60;60.30
73360;DHT22;63092;43.582;19.528;2023-07-16T12:45:05;35.60;56.80
73360;DHT22;63092;43.582;19.528;2023-07-16T12:47:31;35.60;58.30
73360;DHT22;63092;43.582;19.528;2023-07-16T12:49:57;35.70;58.50
73360;DHT22;63092;43.582;19.528;2023-07-16T12:52:23;35.70;57.40
73360;DHT22;63092;43.582;19.528;2023-07-16T12:54:48;35.70;53.30
73360;DHT22;63092;43.582;19.528;2023-07-16T12:57:15;35.70;56.10
73360;DHT22;63092;43.582;19.528;2023-07-16T12:59:41;35.80;57.20
73360;DHT22;63092;43.582;19.528;2023-07-16T13:02:06;35.90;49.80
73360;DHT22;63092;43.582;19.528;2023-07-16T13:04:32;35.90;53.20
73360;DHT22;63092;43.582;19.528;2023-07-16T13:06:58;36.00;55.30
73360;DHT22;63092;43.582;19.528;2023-07-16T13:09:24;36.00;53.50
73360;DHT22;63092;43.582;19.528;2023-07-16T13:11:49;35.90;55.10
73360;DHT22;63092;43.582;19.528;2023-07-16T13:14:17;35.90;55.00
73360;DHT22;63092;43.582;19.528;2023-07-16T13:16:42;35.90;55.00
73360;DHT22;63092;43.582;19.528;2023-07-16T13:19:08;35.90;55.10
73360;DHT22;63092;43.582;19.528;2023-07-16T13:21:34;36.00;56.80
73360;DHT22;63092;43.582;19.528;2023-07-16T13:24:00;36.00;55.90
73360;DHT22;63092;43.582;19.528;2023-07-16T13:26:25;36.00;56.50
73360;DHT22;63092;43.582;19.528;2023-07-16T13:28:51;36.20;55.70
73360;DHT22;63092;43.582;19.528;2023-07-16T13:31:17;36.10;56.30
73360;DHT22;63092;43.582;19.528;2023-07-16T13:33:43;36.00;54.90
73360;DHT22;63092;43.582;19.528;2023-07-16T13:36:09;36.10;54.80
73360;DHT22;63092;43.582;19.528;2023-07-16T13:38:35;36.10;56.20
73360;DHT22;63092;43.582;19.528;2023-07-16T13:41:00;36.10;56.50
73360;DHT22;63092;43.582;19.528;2023-07-16T13:43:26;36.10;56.50
73360;DHT22;63092;43.582;19.528;2023-07-16T13:45:52;36.10;55.10
73360;DHT22;63092;43.582;19.528;2023-07-16T13:48:17;36.10;56.00
73360;DHT22;63092;43.582;19.528;2023-07-16T13:50:43;36.10;53.60
73360;DHT22;63092;43.582;19.528;2023-07-16T13:53:09;36.10;53.70
73360;DHT22;63092;43.582;19.528;2023-07-16T13:55:34;36.20;56.20
73360;DHT22;63092;43.582;19.528;2023-07-16T13:58:00;36.20;53.50
73360;DHT22;63092;43.582;19.528;2023-07-16T14:00:26;36.30;54.80
73360;DHT22;63092;43.582;19.528;2023-07-16T14:02:52;36.30;55.10
73360;DHT22;63092;43.582;19.528;2023-07-16T14:05:17;36.30;52.40
73360;DHT22;63092;43.582;19.528;2023-07-16T14:07:44;36.30;53.60
73360;DHT22;63092;43.582;19.528;2023-07-16T14:10:10;36.30;53.20
73360;DHT22;63092;43.582;19.528;2023-07-16T14:12:36;36.20;53.70
73360;DHT22;63092;43.582;19.528;2023-07-16T14:15:02;36.30;52.70
73360;DHT22;63092;43.582;19.528;2023-07-16T14:17:28;36.30;55.70
73360;DHT22;63092;43.582;19.528;2023-07-16T14:19:53;36.30;55.70
73360;DHT22;63092;43.582;19.528;2023-07-16T14:22:19;36.30;54.70
73360;DHT22;63092;43.582;19.528;2023-07-16T14:24:45;36.20;53.60
73360;DHT22;63092;43.582;19.528;2023-07-16T14:27:16;36.20;54.60
73360;DHT22;63092;43.582;19.528;2023-07-16T14:29:43;36.30;53.90
73360;DHT22;63092;43.582;19.528;2023-07-16T14:32:09;36.20;55.10
73360;DHT22;63092;43.582;19.528;2023-07-16T14:34:34;36.20;56.30
73360;DHT22;63092;43.582;19.528;2023-07-16T14:37:00;36.20;56.60
73360;DHT22;63092;43.582;19.528;2023-07-16T14:39:25;36.20;56.40
73360;DHT22;63092;43.582;19.528;2023-07-16T14:41:52;36.30;56.70
73360;DHT22;63092;43.582;19.528;2023-07-16T14:44:17;36.30;56.40
73360;DHT22;63092;43.582;19.528;2023-07-16T14:46:43;36.30;57.50
73360;DHT22;63092;43.582;19.528;2023-07-16T14:49:09;36.30;57.40
73360;DHT22;63092;43.582;19.528;2023-07-16T14:51:34;36.30;58.90
73360;DHT22;63092;43.582;19.528;2023-07-16T14:54:06;36.30;53.90
73360;DHT22;63092;43.582;19.528;2023-07-16T14:56:32;36.20;54.80
73360;DHT22;63092;43.582;19.528;2023-07-16T14:58:58;36.20;53.70
73360;DHT22;63092;43.582;19.528;2023-07-16T15:01:24;36.30;59.10
73360;DHT22;63092;43.582;19.528;2023-07-16T15:03:49;36.30;55.40
73360;DHT22;63092;43.582;19.528;2023-07-16T15:06:15;36.20;57.80
73360;DHT22;63092;43.582;19.528;2023-07-16T15:08:41;36.20;57.70
73360;DHT22;63092;43.582;19.528;2023-07-16T15:11:07;36.20;59.10
73360;DHT22;63092;43.582;19.528;2023-07-16T15:13:32;36.10;61.30
73360;DHT22;63092;43.582;19.528;2023-07-16T15:15:58;36.20;62.80
73360;DHT22;63092;43.582;19.528;2023-07-16T15:18:24;36.20;63.90
73360;DHT22;63092;43.582;19.528;2023-07-16T15:20:57;36.20;64.50
73360;DHT22;63092;43.582;19.528;2023-07-16T15:23:24;36.20;64.00
73360;DHT22;63092;43.582;19.528;2023-07-16T15:25:51;36.10;63.80
73360;DHT22;63092;43.582;19.528;2023-07-16T15:28:17;36.10;64.10
73360;DHT22;63092;43.582;19.528;2023-07-16T15:30:42;36.00;65.20
73360;DHT22;63092;43.582;19.528;2023-07-16T15:33:08;36.00;65.10
73360;DHT22;63092;43.582;19.528;2023-07-16T15:35:34;35.90;63.80
73360;DHT22;63092;43.582;19.528;2023-07-16T15:38:02;35.80;64.00
73360;DHT22;63092;43.582;19.528;2023-07-16T15:40:32;35.80;64.40
73360;DHT22;63092;43.582;19.528;2023-07-16T15:42:58;35.80;64.50
73360;DHT22;63092;43.582;19.528;2023-07-16T15:45:24;35.80;64.10
73360;DHT22;63092;43.582;19.528;2023-07-16T15:47:50;35.70;64.00
73360;DHT22;63092;43.582;19.528;2023-07-16T15:50:23;35.60;62.90
73360;DHT22;63092;43.582;19.528;2023-07-16T15:52:48;35.50;63.70
73360;DHT22;63092;43.582;19.528;2023-07-16T15:55:14;35.50;64.80
73360;DHT22;63092;43.582;19.528;2023-07-16T15:57:40;35.50;65.00
73360;DHT22;63092;43.582;19.528;2023-07-16T16:00:08;35.50;64.60
73360;DHT22;63092;43.582;19.528;2023-07-16T16:02:49;35.40;65.00
73360;DHT22;63092;43.582;19.528;2023-07-16T16:05:16;35.40;65.00
73360;DHT22;63092;43.582;19.528;2023-07-16T16:07:46;35.30;64.00